createdAt,value
2023-04-16T00:00:57.734Z,37.7220
2023-04-16T00:02:00.029Z,37.6900
2023-04-16T00:03:02.337Z,37.7020
2023-04-16T00:04:04.583Z,37.7070
2023-04-16T00:05:06.710Z,37.7070
2023-04-16T00:06:08.803Z,37.6840
2023-04-16T00:07:11.047Z,37.7230
2023-04-16T00:08:11.179Z,37.6730
2023-04-16T00:09:15.572Z,37.6150
2023-04-16T00:09:45.619Z,37.6270
2023-04-16T00:10:47.871Z,37.5980
2023-04-16T00:11:50.090Z,37.5540
2023-04-16T00:12:52.306Z,37.5100
2023-04-16T00:13:54.598Z,37.4920
2023-04-16T00:14:56.853Z,37.5040
2023-04-16T00:15:56.959Z,37.4690
2023-04-16T00:16:59.307Z,37.5040
2023-04-16T00:18:01.560Z,37.5580
2023-04-16T00:19:03.849Z,37.5490
2023-04-16T00:20:06.208Z,37.5160
2023-04-16T00:21:08.440Z,37.4930
2023-04-16T00:22:10.709Z,37.4990
2023-04-16T00:23:10.841Z,37.5200
2023-04-16T00:24:13.104Z,37.4890
2023-04-16T00:25:15.372Z,37.4840
2023-04-16T00:26:17.814Z,37.4410
2023-04-16T00:27:19.955Z,37.4340
2023-04-16T00:28:22.226Z,37.3950
2023-04-16T00:29:24.515Z,37.3950
2023-04-16T00:30:26.834Z,37.4180
2023-04-16T00:31:27.028Z,37.3720
2023-04-16T00:32:29.318Z,37.3820
2023-04-16T00:33:31.610Z,37.3610
2023-04-16T00:34:33.930Z,37.3610
2023-04-16T00:35:36.277Z,37.3400
2023-04-16T00:36:38.582Z,37.3190
2023-04-16T00:37:38.737Z,37.3150
2023-04-16T00:38:41.077Z,37.2770
2023-04-16T00:39:43.417Z,37.2420
2023-04-16T00:40:45.794Z,37.2520
2023-04-16T00:41:48.090Z,37.2190
2023-04-16T00:42:50.407Z,37.2040
2023-04-16T00:43:52.706Z,37.2270
2023-04-16T00:44:55.028Z,37.2490
2023-04-16T00:45:57.448Z,37.2490
2023-04-16T00:46:59.674Z,37.2620
2023-04-16T00:48:00.685Z,37.2240
2023-04-16T00:49:02.179Z,37.2350
2023-04-16T00:50:04.580Z,37.2120
2023-04-16T00:51:06.870Z,37.2390
2023-04-16T00:52:09.125Z,37.2240
2023-04-16T00:53:11.502Z,37.2070
2023-04-16T00:54:11.696Z,37.1890
2023-04-16T00:55:14.034Z,37.1570
2023-04-16T00:56:17.702Z,37.1550
2023-04-16T00:57:18.653Z,37.1570
2023-04-16T00:58:20.974Z,37.1130
2023-04-16T00:59:23.329Z,37.0920
2023-04-16T01:00:23.493Z,37.1220
2023-04-16T01:01:25.894Z,37.1110
2023-04-16T01:02:28.253Z,37.1080
2023-04-16T01:03:30.624Z,37.1480
2023-04-16T01:04:32.849Z,37.1420
2023-04-16T01:05:35.065Z,37.1360
2023-04-16T01:06:35.260Z,37.1370
2023-04-16T01:07:37.482Z,37.1670
2023-04-16T01:08:39.765Z,37.1520
2023-04-16T01:09:42.086Z,37.1210
2023-04-16T01:10:44.365Z,37.0980
2023-04-16T01:11:46.813Z,37.1020
2023-04-16T01:12:46.852Z,37.0600
2023-04-16T01:13:49.122Z,37.0630
2023-04-16T01:14:51.409Z,37.0540
2023-04-16T01:15:53.779Z,37.0840
2023-04-16T01:16:56.093Z,37.1200
2023-04-16T01:17:58.412Z,37.0870
2023-04-16T01:18:58.490Z,37.0510
2023-04-16T01:20:00.797Z,37.0640
2023-04-16T01:21:03.069Z,37.0570
2023-04-16T01:22:05.422Z,37.0750
2023-04-16T01:23:07.683Z,37.0340
2023-04-16T01:24:09.997Z,37.0280
2023-04-16T01:25:10.143Z,37.0280
2023-04-16T01:26:12.475Z,37.0180
2023-04-16T01:27:14.831Z,36.9780
2023-04-16T01:28:17.132Z,36.9780
2023-04-16T01:29:19.375Z,36.9550
2023-04-16T01:30:21.727Z,36.9400
2023-04-16T01:31:21.974Z,36.9110
2023-04-16T01:32:24.288Z,36.9110
2023-04-16T01:33:26.598Z,36.8940
2023-04-16T01:34:28.949Z,36.9310
2023-04-16T01:35:31.275Z,36.9140
2023-04-16T01:36:33.631Z,36.8940
2023-04-16T01:37:33.847Z,36.8850
2023-04-16T01:38:36.179Z,36.9080
2023-04-16T01:39:38.548Z,36.9140
2023-04-16T01:40:40.887Z,36.9170
2023-04-16T01:41:43.241Z,36.9290
2023-04-16T01:42:45.606Z,36.8680
2023-04-16T01:43:47.980Z,36.8820
2023-04-16T01:44:50.238Z,36.8830
2023-04-16T01:45:52.573Z,36.8350
2023-04-16T01:46:54.985Z,36.8430
2023-04-16T01:47:55.106Z,36.8320
2023-04-16T01:48:57.396Z,36.8260
2023-04-16T01:49:59.752Z,36.8030
2023-04-16T01:51:02.136Z,36.7760
2023-04-16T01:52:02.359Z,36.7670
2023-04-16T01:53:04.715Z,36.7860
2023-04-16T01:54:07.038Z,36.8150
2023-04-16T01:55:09.410Z,36.7880
2023-04-16T01:56:11.757Z,36.7860
2023-04-16T01:57:11.970Z,36.8020
2023-04-16T01:58:14.352Z,36.7960
2023-04-16T01:59:16.723Z,36.7620
2023-04-16T02:00:19.040Z,36.7440
2023-04-16T02:01:21.405Z,36.7830
2023-04-16T02:02:21.645Z,36.7830
2023-04-16T02:03:24.017Z,36.7790
2023-04-16T02:04:26.127Z,36.8150
2023-04-16T02:05:28.453Z,36.7830
2023-04-16T02:06:30.753Z,36.7850
2023-04-16T02:07:33.070Z,36.7790
2023-04-16T02:08:33.260Z,36.8040
2023-04-16T02:09:35.508Z,36.7910
2023-04-16T02:10:37.821Z,36.7740
2023-04-16T02:11:40.070Z,36.7740
2023-04-16T02:12:42.344Z,36.7640
2023-04-16T02:13:44.713Z,36.7350
2023-04-16T02:14:46.992Z,36.7390
2023-04-16T02:15:47.091Z,36.7510
2023-04-16T02:16:49.492Z,36.7240
2023-04-16T02:17:51.623Z,36.7240
2023-04-16T02:18:53.943Z,36.7360
2023-04-16T02:19:56.215Z,36.7450
2023-04-16T02:20:58.497Z,36.7260
2023-04-16T02:22:00.785Z,36.6820
2023-04-16T02:23:00.904Z,36.7260
2023-04-16T02:24:03.262Z,36.7480
2023-04-16T02:25:05.406Z,36.7260
2023-04-16T02:26:07.684Z,36.7260
2023-04-16T02:27:09.920Z,36.7260
2023-04-16T02:28:12.179Z,36.6940
2023-04-16T02:29:14.396Z,36.6540
2023-04-16T02:30:16.611Z,36.6650
2023-04-16T02:31:18.911Z,36.6590
2023-04-16T02:32:19.162Z,36.6750
2023-04-16T02:33:21.274Z,36.6540
2023-04-16T02:34:23.653Z,36.6420
2023-04-16T02:35:25.831Z,36.6750
2023-04-16T02:36:28.126Z,36.6750
2023-04-16T02:37:30.428Z,36.6480
2023-04-16T02:38:32.726Z,36.5960
2023-04-16T02:39:32.962Z,36.5790
2023-04-16T02:40:35.320Z,36.6060
2023-04-16T02:41:37.559Z,36.6120
2023-04-16T02:42:39.888Z,36.6060
2023-04-16T02:43:42.177Z,36.6390
2023-04-16T02:44:44.543Z,36.6500
2023-04-16T02:45:44.764Z,36.6430
2023-04-16T02:46:46.938Z,36.6270
2023-04-16T02:47:49.290Z,36.6160
2023-04-16T02:48:51.561Z,36.6310
2023-04-16T02:49:53.873Z,36.6540
2023-04-16T02:50:56.126Z,36.6470
2023-04-16T02:51:58.359Z,36.6640
2023-04-16T02:52:58.497Z,36.6270
2023-04-16T02:54:00.791Z,36.6040
2023-04-16T02:55:03.151Z,36.6010
2023-04-16T02:56:05.390Z,36.6260
2023-04-16T02:57:07.718Z,36.6280
2023-04-16T02:58:10.039Z,36.6040
2023-04-16T02:59:12.360Z,36.5740
2023-04-16T03:00:14.666Z,36.5740
2023-04-16T03:01:17.042Z,36.5860
2023-04-16T03:02:19.349Z,36.5840
2023-04-16T03:03:21.666Z,36.5900
2023-04-16T03:04:24.042Z,36.5780
2023-04-16T03:05:24.283Z,36.5610
2023-04-16T03:06:26.588Z,36.5670
2023-04-16T03:07:28.906Z,36.5400
2023-04-16T03:08:31.270Z,36.5340
2023-04-16T03:10:42.492Z,36.5940
2023-04-16T03:11:44.696Z,36.5550
2023-04-16T03:12:46.971Z,36.5420
2023-04-16T03:13:49.257Z,36.5170
2023-04-16T03:14:51.547Z,36.4990
2023-04-16T03:15:51.757Z,36.5250
2023-04-16T03:16:54.000Z,36.5250
2023-04-16T03:17:56.238Z,36.5420
2023-04-16T03:18:58.392Z,36.5200
2023-04-16T03:20:00.579Z,36.5410
2023-04-16T03:21:02.804Z,36.5580
2023-04-16T03:22:05.013Z,36.5370
2023-04-16T03:23:07.224Z,36.5290
2023-04-16T03:24:09.530Z,36.5200
2023-04-16T03:25:11.798Z,36.5180
2023-04-16T03:26:14.073Z,36.5200
2023-04-16T03:27:14.205Z,36.5140
2023-04-16T03:28:16.493Z,36.4940
2023-04-16T03:29:18.721Z,36.5020
2023-04-16T03:30:20.947Z,36.4720
2023-04-16T03:31:23.264Z,36.4790
2023-04-16T03:32:25.495Z,36.4760
2023-04-16T03:33:27.735Z,36.4850
2023-04-16T03:34:30.029Z,36.4850
2023-04-16T03:35:32.280Z,36.4550
2023-04-16T03:36:32.459Z,36.4720
2023-04-16T03:37:34.793Z,36.4710
2023-04-16T03:38:37.096Z,36.4800
2023-04-16T03:39:39.385Z,36.4820
2023-04-16T03:40:41.711Z,36.4880
2023-04-16T03:41:44.067Z,36.4980
2023-04-16T03:42:44.191Z,36.5090
2023-04-16T03:43:46.476Z,36.5300
2023-04-16T03:44:48.685Z,36.5470
2023-04-16T03:45:51.005Z,36.5260
2023-04-16T03:46:53.393Z,36.5150
2023-04-16T03:47:55.608Z,36.4860
2023-04-16T03:48:57.768Z,36.5150
2023-04-16T03:49:57.963Z,36.5130
2023-04-16T03:51:00.255Z,36.5030
2023-04-16T03:52:02.589Z,36.4980
2023-04-16T03:53:04.822Z,36.5090
2023-04-16T03:54:07.126Z,36.4980
2023-04-16T03:55:09.423Z,36.4960
2023-04-16T03:56:09.611Z,36.4860
2023-04-16T03:57:11.941Z,36.4860
2023-04-16T03:58:14.210Z,36.4690
2023-04-16T03:59:16.522Z,36.4630
2023-04-16T04:00:18.798Z,36.4630
2023-04-16T04:01:21.138Z,36.4630
2023-04-16T04:02:23.698Z,36.4560
2023-04-16T04:03:23.865Z,36.4500
2023-04-16T04:04:25.867Z,36.4330
2023-04-16T04:05:28.015Z,36.4980
2023-04-16T04:06:30.259Z,36.5150
2023-04-16T04:07:32.541Z,36.4830
2023-04-16T04:08:34.777Z,36.4500
2023-04-16T04:09:37.010Z,36.4220
2023-04-16T04:10:39.281Z,36.4270
2023-04-16T04:11:41.522Z,36.3890
2023-04-16T04:12:41.659Z,36.3790
2023-04-16T04:13:43.872Z,36.3950
2023-04-16T04:14:46.066Z,36.4050
2023-04-16T04:15:48.309Z,36.3990
2023-04-16T04:16:50.640Z,36.3930
2023-04-16T04:17:52.881Z,36.4100
2023-04-16T04:18:54.958Z,36.3860
2023-04-16T04:20:01.181Z,36.3930
2023-04-16T04:20:59.345Z,36.4070
2023-04-16T04:22:01.559Z,36.4530
2023-04-16T04:23:03.844Z,36.4280
2023-04-16T04:24:03.831Z,36.4310
2023-04-16T04:25:06.041Z,36.4010
2023-04-16T04:26:08.353Z,36.3930
2023-04-16T04:27:10.601Z,36.3800
2023-04-16T04:28:12.931Z,36.4010
2023-04-16T04:29:15.197Z,36.3950
2023-04-16T04:30:17.429Z,36.3780
2023-04-16T04:31:19.780Z,36.4170
2023-04-16T04:32:22.065Z,36.4010
2023-04-16T04:33:22.128Z,36.3940
2023-04-16T04:34:24.369Z,36.4280
2023-04-16T04:35:26.577Z,36.4170
2023-04-16T04:36:28.800Z,36.4230
2023-04-16T04:37:31.049Z,36.4230
2023-04-16T04:38:33.360Z,36.4420
2023-04-16T04:39:35.522Z,36.4600
2023-04-16T04:40:37.777Z,36.4420
2023-04-16T04:41:40.039Z,36.4170
2023-04-16T04:42:42.228Z,36.3940
2023-04-16T04:43:42.333Z,36.3950
2023-04-16T04:44:44.547Z,36.4050
2023-04-16T04:46:38.566Z,36.4660
2023-04-16T04:47:40.754Z,36.4510
2023-04-16T04:48:43.046Z,36.4230
2023-04-16T04:49:45.353Z,36.4000
2023-04-16T04:50:47.604Z,36.4000
2023-04-16T04:51:47.740Z,36.4000
2023-04-16T04:52:49.989Z,36.4060
2023-04-16T04:53:52.287Z,36.3720
2023-04-16T04:54:54.576Z,36.3770
2023-04-16T04:55:58.750Z,36.3830
2023-04-16T04:56:59.107Z,36.4060
2023-04-16T04:58:01.384Z,36.3720
2023-04-16T04:59:02.533Z,36.4330
2023-04-16T05:00:04.850Z,36.5700
2023-04-16T05:01:04.943Z,36.6480
2023-04-16T05:02:07.092Z,36.7510
2023-04-16T05:03:09.385Z,36.7640
2023-04-16T05:04:11.572Z,36.7970
2023-04-16T05:05:13.974Z,36.8370
2023-04-16T05:06:13.810Z,36.8370
2023-04-16T05:07:15.985Z,36.8250
2023-04-16T05:08:18.230Z,36.8560
2023-04-16T05:09:20.561Z,36.8470
2023-04-16T05:10:20.759Z,36.8700
2023-04-16T05:11:23.060Z,36.8700
2023-04-16T05:12:25.376Z,36.8890
2023-04-16T05:13:27.697Z,36.9220
2023-04-16T05:14:30.004Z,36.9010
2023-04-16T05:15:32.352Z,36.8650
2023-04-16T05:16:34.704Z,36.8700
2023-04-16T05:17:37.007Z,36.8590
2023-04-16T05:18:39.310Z,36.8590
2023-04-16T05:19:41.662Z,36.8590
2023-04-16T05:20:43.997Z,36.8700
2023-04-16T05:21:46.232Z,36.8920
2023-04-16T05:22:48.494Z,36.8920
2023-04-16T05:23:48.631Z,36.8690
2023-04-16T05:24:50.870Z,36.8650
2023-04-16T05:25:53.149Z,36.8590
2023-04-16T05:26:55.388Z,36.8690
2023-04-16T05:27:57.656Z,36.8420
2023-04-16T05:28:59.892Z,36.8380
2023-04-16T05:30:02.178Z,36.8240
2023-04-16T05:31:04.430Z,36.8260
2023-04-16T05:32:04.507Z,36.8320
2023-04-16T05:33:06.786Z,36.8420
2023-04-16T05:34:09.079Z,36.8470
2023-04-16T05:35:11.354Z,36.8860
2023-04-16T05:36:11.536Z,36.8650
2023-04-16T05:37:13.724Z,36.8470
2023-04-16T05:38:15.982Z,36.8160
2023-04-16T05:39:18.215Z,36.7930
2023-04-16T05:40:18.348Z,36.8240
2023-04-16T05:41:20.589Z,36.8300
2023-04-16T05:42:22.847Z,36.8360
2023-04-16T05:43:25.140Z,36.8570
2023-04-16T05:44:25.302Z,36.8630
2023-04-16T05:45:28.128Z,36.8420
2023-04-16T05:46:30.065Z,36.8470
2023-04-16T05:47:32.329Z,36.8090
2023-04-16T05:48:34.643Z,36.7760
2023-04-16T05:49:36.964Z,36.7980
2023-04-16T05:50:39.320Z,36.8090
2023-04-16T05:51:41.731Z,36.8470
2023-04-16T05:52:44.006Z,36.8130
2023-04-16T05:53:46.306Z,36.8360
2023-04-16T05:54:48.581Z,36.8060
2023-04-16T05:55:50.881Z,36.8300
2023-04-16T05:56:53.257Z,36.8210
2023-04-16T05:57:55.539Z,36.7990
2023-04-16T05:58:57.897Z,36.7710
2023-04-16T06:00:00.242Z,36.7760
2023-04-16T06:01:02.572Z,36.8130
2023-04-16T06:02:04.927Z,36.7990
2023-04-16T06:03:05.348Z,36.8030
2023-04-16T06:04:07.500Z,36.7940
2023-04-16T06:05:09.835Z,36.7980
2023-04-16T06:06:10.002Z,36.7780
2023-04-16T06:07:12.423Z,36.7510
2023-04-16T06:08:14.666Z,36.7550
2023-04-16T06:09:16.906Z,36.7920
2023-04-16T06:10:17.032Z,36.7760
2023-04-16T06:11:19.373Z,36.7880
2023-04-16T06:12:21.550Z,36.7720
2023-04-16T06:13:23.794Z,36.7670
2023-04-16T06:14:26.009Z,36.7610
2023-04-16T06:15:28.291Z,36.7880
2023-04-16T06:16:30.621Z,36.8020
2023-04-16T06:17:32.926Z,36.7460
2023-04-16T06:18:35.170Z,36.7550
2023-04-16T06:19:37.485Z,36.8020
2023-04-16T06:20:39.787Z,36.7400
2023-04-16T06:21:39.947Z,36.8050
2023-04-16T06:22:42.304Z,36.7970
2023-04-16T06:23:44.569Z,36.8140
2023-04-16T06:24:46.868Z,36.8040
2023-04-16T06:25:49.186Z,36.7930
2023-04-16T06:26:51.496Z,36.8100
2023-04-16T06:27:53.817Z,36.8260
2023-04-16T06:28:56.111Z,36.8260
2023-04-16T06:29:58.455Z,36.8440
2023-04-16T06:31:00.851Z,36.9290
2023-04-16T06:32:03.162Z,37.0450
2023-04-16T06:33:05.598Z,37.1300
2023-04-16T06:34:05.707Z,37.1920
2023-04-16T06:35:08.015Z,37.2750
2023-04-16T06:36:10.364Z,37.3780
2023-04-16T06:37:12.682Z,37.3840
2023-04-16T06:38:14.988Z,37.3400
2023-04-16T06:39:17.267Z,37.3120
2023-04-16T06:40:19.546Z,37.3710
2023-04-16T06:41:19.653Z,37.3700
2023-04-16T06:42:21.913Z,37.3450
2023-04-16T06:43:24.249Z,37.2840
2023-04-16T06:44:26.492Z,37.2630
2023-04-16T06:45:26.697Z,37.2330
2023-04-16T06:46:29.138Z,37.1850
2023-04-16T06:47:31.478Z,37.1250
2023-04-16T06:48:31.656Z,37.1430
2023-04-16T06:49:33.876Z,37.1330
2023-04-16T06:50:36.084Z,37.1250
2023-04-16T06:51:38.340Z,37.1120
2023-04-16T06:52:38.546Z,37.0900
2023-04-16T06:53:40.847Z,37.0960
2023-04-16T06:54:43.112Z,37.1170
2023-04-16T06:55:45.441Z,37.1280
2023-04-16T06:56:47.735Z,37.1300
2023-04-16T06:57:50.027Z,37.1390
2023-04-16T06:58:52.372Z,37.1390
2023-04-16T06:59:54.696Z,37.1610
2023-04-16T07:00:56.990Z,37.1960
2023-04-16T07:01:59.406Z,37.2070
2023-04-16T07:03:02.039Z,37.2430
2023-04-16T07:04:04.204Z,37.2330
2023-04-16T07:05:06.353Z,37.2500
2023-04-16T07:06:08.685Z,37.2700
2023-04-16T07:07:11.000Z,37.2920
2023-04-16T07:08:11.220Z,37.2670
2023-04-16T07:09:13.662Z,37.3460
2023-04-16T07:10:15.846Z,37.3840
2023-04-16T07:11:18.144Z,37.4470
2023-04-16T07:12:18.764Z,37.4690
2023-04-16T07:13:20.631Z,37.4980
2023-04-16T07:14:23.014Z,37.5070
2023-04-16T07:15:23.175Z,37.4950
2023-04-16T07:16:25.549Z,37.5180
2023-04-16T07:17:27.867Z,37.5280
2023-04-16T07:18:30.174Z,37.5240
2023-04-16T07:19:32.532Z,37.5220
2023-04-16T07:20:34.804Z,37.5070
2023-04-16T07:21:37.116Z,37.5190
2023-04-16T07:22:39.441Z,37.5070
2023-04-16T07:23:41.764Z,37.4890
2023-04-16T07:24:44.075Z,37.4820
2023-04-16T07:25:46.341Z,37.5070
2023-04-16T07:26:48.688Z,37.4590
2023-04-16T07:27:51.006Z,37.5030
2023-04-16T07:28:53.317Z,37.5070
2023-04-16T07:29:55.614Z,37.5250
2023-04-16T07:30:57.923Z,37.5010
2023-04-16T07:31:36.191Z,37.4820
2023-04-16T07:32:39.003Z,37.3680
2023-04-16T07:33:41.246Z,37.2600
2023-04-16T07:34:41.369Z,37.2110
2023-04-16T07:35:43.641Z,37.1730
2023-04-16T07:36:45.893Z,37.1400
2023-04-16T07:37:48.145Z,37.1130
2023-04-16T07:38:50.428Z,37.0980
2023-04-16T07:39:53.130Z,37.0860
2023-04-16T07:40:55.015Z,37.0710
2023-04-16T07:41:57.277Z,37.0650
2023-04-16T07:42:57.421Z,37.0540
2023-04-16T07:43:59.673Z,37.0420
2023-04-16T07:45:01.914Z,37.0250
2023-04-16T07:46:04.165Z,37.0250
2023-04-16T07:47:06.395Z,37.0190
2023-04-16T07:48:08.620Z,36.9920
2023-04-16T07:49:11.033Z,37.0480
2023-04-16T07:50:13.097Z,37.0360
2023-04-16T07:51:15.409Z,37.0210
2023-04-16T07:52:17.669Z,37.0100
2023-04-16T07:53:17.819Z,36.9920
2023-04-16T07:54:20.084Z,36.9920
2023-04-16T07:55:22.403Z,36.9840
2023-04-16T07:56:24.688Z,36.9870
2023-04-16T07:57:26.982Z,36.9870
2023-04-16T07:58:29.292Z,36.9890
2023-04-16T07:59:31.643Z,37.0130
2023-04-16T08:00:31.785Z,37.0210
2023-04-16T08:01:34.145Z,37.0310
2023-04-16T08:02:36.566Z,37.0210
2023-04-16T08:03:38.912Z,37.0320
2023-04-16T08:04:41.387Z,37.0360
2023-04-16T08:05:41.389Z,37.0840
2023-04-16T08:06:43.592Z,37.0900
2023-04-16T08:07:45.836Z,37.0860
2023-04-16T08:08:48.099Z,37.0680
2023-04-16T08:09:50.382Z,37.0800
2023-04-16T08:10:52.630Z,37.1010
2023-04-16T08:11:54.875Z,37.1030
2023-04-16T08:12:54.950Z,37.0740
2023-04-16T08:13:57.197Z,37.0740
2023-04-16T08:14:59.448Z,37.0740
2023-04-16T08:16:01.878Z,37.0630
2023-04-16T08:17:04.023Z,37.0380
2023-04-16T08:18:06.268Z,37.0260
2023-04-16T08:19:08.597Z,37.0380
2023-04-16T08:20:14.037Z,37.0320
2023-04-16T08:21:13.056Z,37.0320
2023-04-16T08:22:13.252Z,37.0260
2023-04-16T08:23:15.535Z,36.9930
2023-04-16T08:24:17.844Z,36.9570
2023-04-16T08:25:20.150Z,36.9390
2023-04-16T08:26:22.481Z,36.9360
2023-04-16T08:27:24.809Z,36.9340
2023-04-16T08:28:24.931Z,36.9240
2023-04-16T08:29:27.246Z,36.9220
2023-04-16T08:30:29.557Z,36.9130
2023-04-16T08:31:32.008Z,36.8940
2023-04-16T08:32:34.161Z,36.8880
2023-04-16T08:33:36.420Z,36.9070
2023-04-16T08:34:38.706Z,36.9130
2023-04-16T08:35:38.832Z,36.9130
2023-04-16T08:36:41.088Z,36.9240
2023-04-16T08:37:43.473Z,36.8900
2023-04-16T08:38:45.634Z,36.8900
2023-04-16T08:40:56.730Z,36.9430
2023-04-16T08:41:58.958Z,36.8950
2023-04-16T08:43:01.182Z,36.9300
2023-04-16T08:44:03.425Z,36.8840
2023-04-16T08:45:03.516Z,36.8500
2023-04-16T08:46:05.892Z,36.8550
2023-04-16T08:47:08.191Z,36.8570
2023-04-16T08:48:10.286Z,36.8690
2023-04-16T08:49:12.608Z,36.8900
2023-04-16T08:50:14.741Z,36.8780
2023-04-16T08:51:16.982Z,36.8900
2023-04-16T08:52:19.249Z,36.9220
2023-04-16T08:53:21.544Z,36.9200
2023-04-16T08:54:23.793Z,36.9280
2023-04-16T08:55:02.481Z,36.9170
2023-04-16T08:56:04.743Z,36.9370
2023-04-16T08:57:07.014Z,36.9490
2023-04-16T08:58:09.250Z,36.9490
2023-04-16T08:59:11.668Z,36.9430
2023-04-16T09:00:13.738Z,36.9390
2023-04-16T09:01:15.974Z,36.9660
2023-04-16T09:02:16.227Z,37.0020
2023-04-16T09:03:18.357Z,37.0310
2023-04-16T09:04:20.666Z,37.0550
2023-04-16T09:05:22.836Z,37.0720
2023-04-16T09:06:25.110Z,37.0550
2023-04-16T09:07:27.384Z,37.0620
2023-04-16T09:08:29.651Z,37.0470
2023-04-16T09:09:34.111Z,37.0450
2023-04-16T09:10:34.184Z,37.0550
2023-04-16T09:11:34.221Z,37.0490
2023-04-16T09:12:36.472Z,37.0070
2023-04-16T09:13:38.696Z,36.9890
2023-04-16T09:14:40.984Z,36.9740
2023-04-16T09:15:43.208Z,36.9470
2023-04-16T09:16:45.617Z,36.9480
2023-04-16T09:17:47.684Z,36.9230
2023-04-16T09:18:49.809Z,36.9170
2023-04-16T09:19:52.053Z,36.9480
2023-04-16T09:20:54.216Z,36.9550
2023-04-16T09:21:56.421Z,36.9470
2023-04-16T09:22:58.640Z,36.9470
2023-04-16T09:24:00.843Z,36.9090
2023-04-16T09:25:01.081Z,36.9370
2023-04-16T09:26:03.209Z,36.9370
2023-04-16T09:27:05.425Z,36.9250
2023-04-16T09:28:07.660Z,36.9140
2023-04-16T09:29:10.125Z,36.9190
2023-04-16T09:30:12.181Z,36.9140
2023-04-16T09:31:14.398Z,36.8890
2023-04-16T09:32:16.717Z,36.9320
2023-04-16T09:33:18.985Z,36.9490
2023-04-16T09:34:19.070Z,36.9190
2023-04-16T09:35:21.362Z,36.8950
2023-04-16T09:36:23.582Z,36.9260
2023-04-16T09:37:26.027Z,36.9430
2023-04-16T09:38:28.112Z,36.9530
2023-04-16T09:39:30.375Z,36.9590
2023-04-16T09:40:32.632Z,36.9260
2023-04-16T09:41:34.865Z,36.9370
2023-04-16T09:42:37.148Z,36.9320
2023-04-16T09:43:37.264Z,36.9200
2023-04-16T09:44:39.512Z,36.9090
2023-04-16T09:47:10.027Z,36.9640
2023-04-16T09:48:12.100Z,36.9410
2023-04-16T09:49:14.355Z,36.9300
2023-04-16T09:50:16.399Z,36.9300
2023-04-16T09:51:16.686Z,36.9500
2023-04-16T09:52:18.930Z,36.9750
2023-04-16T09:53:21.162Z,36.9590
2023-04-16T09:54:23.447Z,36.9380
2023-04-16T09:55:25.786Z,36.9110
2023-04-16T09:56:28.152Z,36.9090
2023-04-16T09:57:28.317Z,36.9110
2023-04-16T09:58:30.614Z,36.9090
2023-04-16T09:59:32.937Z,36.9210
2023-04-16T10:00:35.212Z,36.9230
2023-04-16T10:01:37.499Z,36.9380
2023-04-16T10:02:39.921Z,36.9170
2023-04-16T10:03:42.141Z,36.9060
2023-04-16T10:04:44.272Z,36.9170
2023-04-16T10:05:44.362Z,36.9060
2023-04-16T10:06:46.608Z,36.8610
2023-04-16T10:07:48.903Z,36.8280
2023-04-16T10:08:51.123Z,36.8160
2023-04-16T10:09:53.369Z,36.7640
2023-04-16T10:10:55.655Z,36.7070
2023-04-16T10:11:57.932Z,36.6800
2023-04-16T10:13:00.256Z,36.6500
2023-04-16T10:14:00.304Z,36.6360
2023-04-16T10:15:02.609Z,36.6230
2023-04-16T10:16:04.815Z,36.6340
2023-04-16T10:17:07.111Z,36.6120
2023-04-16T10:18:09.425Z,36.5940
2023-04-16T10:19:11.829Z,36.5820
2023-04-16T10:20:15.491Z,36.5550
2023-04-16T10:21:16.169Z,36.6110
2023-04-16T10:22:16.327Z,36.5670
2023-04-16T10:23:18.634Z,36.5730
2023-04-16T10:24:20.882Z,36.5730
2023-04-16T10:25:23.155Z,36.5730
2023-04-16T10:26:25.411Z,36.5780
2023-04-16T10:27:27.681Z,36.5900
2023-04-16T10:28:29.957Z,36.6070
2023-04-16T10:29:32.186Z,36.5930
2023-04-16T10:30:32.320Z,36.6200
2023-04-16T10:31:34.505Z,36.5990
2023-04-16T10:32:36.906Z,36.6240
2023-04-16T10:33:39.095Z,36.6240
2023-04-16T10:34:41.431Z,36.6350
2023-04-16T10:35:43.696Z,36.6290
2023-04-16T10:36:46.001Z,36.6690
2023-04-16T10:37:46.157Z,36.6940
2023-04-16T10:38:48.442Z,36.6840
2023-04-16T10:39:50.689Z,36.6420
2023-04-16T10:40:52.990Z,36.6480
2023-04-16T10:41:55.307Z,36.6370
2023-04-16T10:42:57.592Z,36.6480
2023-04-16T10:43:59.898Z,36.6450
2023-04-16T10:45:00.056Z,36.6450
2023-04-16T10:46:02.454Z,36.6210
2023-04-16T10:47:04.700Z,36.6450
2023-04-16T10:48:07.033Z,36.6300
2023-04-16T10:49:09.569Z,36.6000
2023-04-16T10:50:11.574Z,36.6130
2023-04-16T10:51:13.859Z,36.5940
2023-04-16T10:52:13.960Z,36.5760
2023-04-16T10:53:16.232Z,36.5590
2023-04-16T10:54:18.579Z,36.5340
2023-04-16T10:55:20.840Z,36.5280
2023-04-16T10:56:23.168Z,36.4940
2023-04-16T10:57:25.431Z,36.5320
2023-04-16T10:58:25.564Z,36.5550
2023-04-16T10:59:28.064Z,36.5770
2023-04-16T11:00:28.988Z,36.7360
2023-04-16T11:01:29.140Z,36.8110
2023-04-16T11:02:31.549Z,36.8740
2023-04-16T11:03:33.773Z,36.9260
2023-04-16T11:04:35.968Z,36.9740
2023-04-16T11:05:38.157Z,37.0040
2023-04-16T11:06:40.413Z,37.0910
2023-04-16T11:07:42.673Z,37.0510
2023-04-16T11:08:54.105Z,37.0660
2023-04-16T11:09:45.117Z,37.0890
2023-04-16T11:10:47.379Z,37.0950
2023-04-16T11:11:49.606Z,37.1300
2023-04-16T11:12:51.863Z,37.1060
2023-04-16T11:13:51.974Z,37.0580
2023-04-16T11:14:54.281Z,36.9960
2023-04-16T11:15:56.535Z,37.0360
2023-04-16T11:16:58.813Z,37.0440
2023-04-16T11:17:58.973Z,37.0540
2023-04-16T11:19:01.189Z,37.0510
2023-04-16T11:20:03.490Z,37.0330
2023-04-16T11:21:05.704Z,37.0330
2023-04-16T11:22:05.829Z,37.0450
2023-04-16T11:23:08.067Z,37.0560
2023-04-16T11:24:10.313Z,37.0390
2023-04-16T11:25:12.600Z,37.0730
2023-04-16T11:26:14.813Z,37.0850
2023-04-16T11:27:17.077Z,37.0790
2023-04-16T11:28:19.309Z,37.0620
2023-04-16T11:29:21.584Z,37.0560
2023-04-16T11:30:21.814Z,37.0560
2023-04-16T11:31:24.019Z,37.0280
2023-04-16T11:32:26.352Z,37.0390
2023-04-16T11:33:28.600Z,36.9970
2023-04-16T11:34:28.746Z,36.9740
2023-04-16T11:35:31.083Z,36.9680
2023-04-16T11:36:33.303Z,36.9300
2023-04-16T11:37:35.583Z,36.9310
2023-04-16T11:38:35.705Z,36.8930
2023-04-16T11:39:38.000Z,36.8930
2023-04-16T11:40:40.277Z,36.8700
2023-04-16T11:41:42.558Z,36.8760
2023-04-16T11:42:45.052Z,36.8450
2023-04-16T11:43:47.160Z,36.8220
2023-04-16T11:44:49.412Z,36.8050
2023-04-16T11:45:49.552Z,36.7570
2023-04-16T11:46:51.831Z,36.7870
2023-04-16T11:47:54.084Z,36.7800
2023-04-16T11:48:56.407Z,36.7780
2023-04-16T11:49:56.451Z,36.7720
2023-04-16T11:50:58.757Z,36.7510
2023-04-16T11:52:01.012Z,36.7530
2023-04-16T11:53:03.229Z,36.7300
2023-04-16T11:54:05.488Z,36.7190
2023-04-16T11:55:07.756Z,36.7190
2023-04-16T11:56:10.070Z,36.7110
2023-04-16T11:57:12.310Z,36.6940
2023-04-16T11:58:12.451Z,36.7170
2023-04-16T11:59:14.998Z,36.7080
2023-04-16T12:00:17.005Z,36.7600
2023-04-16T12:01:19.324Z,36.7780
2023-04-16T12:02:21.730Z,36.7950
2023-04-16T12:03:24.116Z,36.8450
2023-04-16T12:04:26.305Z,36.8640
2023-04-16T12:05:26.321Z,36.8810
2023-04-16T12:06:28.657Z,37.2710
2023-04-16T12:07:30.956Z,37.9860
2023-04-16T12:08:33.309Z,38.5620
2023-04-16T12:09:37.155Z,39.3490
2023-04-16T12:10:38.008Z,39.4590
2023-04-16T12:11:38.234Z,39.2940
2023-04-16T12:12:40.524Z,38.9970
2023-04-16T12:13:42.861Z,38.7190
2023-04-16T12:14:45.142Z,38.5090
2023-04-16T12:15:47.450Z,38.4250
2023-04-16T12:16:49.811Z,38.3580
2023-04-16T12:17:52.041Z,38.3620
2023-04-16T12:18:52.170Z,38.3490
2023-04-16T12:19:54.414Z,38.2880
2023-04-16T12:20:56.764Z,38.1900
2023-04-16T12:21:59.204Z,38.2510
2023-04-16T12:23:01.390Z,38.2270
2023-04-16T12:24:03.704Z,38.2260
2023-04-16T12:25:06.031Z,38.1570
2023-04-16T12:26:08.337Z,38.1090
2023-04-16T12:27:10.708Z,38.1010
2023-04-16T12:28:12.993Z,37.9990
2023-04-16T12:29:15.294Z,37.9660
2023-04-16T12:30:17.564Z,37.8680
2023-04-16T12:31:19.920Z,37.9050
2023-04-16T12:32:20.077Z,37.8470
2023-04-16T12:33:22.363Z,37.7890